createdAt,value
2018-07-21T17:49:00.749Z,27.81
2018-07-21T17:50:00.721Z,27.82
2018-07-21T17:51:00.708Z,27.81
2018-07-21T17:52:00.689Z,27.87
2018-07-21T17:53:00.716Z,27.92
2018-07-21T17:54:00.664Z,27.78
2018-07-21T17:55:00.650Z,27.82
2018-07-21T17:56:00.641Z,27.75
2018-07-21T17:57:00.629Z,27.67
2018-07-21T17:58:00.670Z,27.66
2018-07-21T17:59:00.625Z,27.69
2018-07-21T18:00:00.603Z,27.65
2018-07-21T18:01:00.587Z,27.62
2018-07-21T18:02:00.577Z,27.63
2018-07-21T18:03:00.583Z,27.62
2018-07-21T18:04:00.561Z,27.49
2018-07-21T18:05:00.552Z,27.46
2018-07-21T18:06:00.558Z,27.32
2018-07-21T18:07:00.548Z,27.36
2018-07-21T18:08:00.538Z,27.34
2018-07-21T18:09:00.528Z,27.25
2018-07-21T18:10:00.535Z,27.25
2018-07-21T18:11:00.503Z,27.22
2018-07-21T18:12:00.513Z,27.21
2018-07-21T18:13:00.479Z,27.10
2018-07-21T18:14:00.509Z,27.13
2018-07-21T18:15:00.477Z,27.19
2018-07-21T18:16:00.512Z,27.14
2018-07-21T18:17:00.449Z,27.09
2018-07-21T18:18:00.443Z,27.13
2018-07-21T18:19:00.432Z,27.12
2018-07-21T18:20:00.479Z,27.07
2018-07-21T18:21:00.928Z,27.10
2018-07-21T18:22:00.447Z,27.18
2018-07-21T18:23:00.404Z,27.21
2018-07-21T18:24:03.347Z,27.17
2018-07-21T18:25:00.398Z,27.25
2018-07-21T18:26:00.378Z,27.14
2018-07-21T18:27:00.363Z,27.32
2018-07-21T18:28:00.358Z,27.25
2018-07-21T18:29:00.352Z,27.34
2018-07-21T18:30:00.343Z,27.22
2018-07-21T18:31:00.352Z,27.24
2018-07-21T18:32:00.362Z,27.24
2018-07-21T18:33:00.387Z,27.36
2018-07-21T18:34:00.308Z,27.37
2018-07-21T18:35:00.303Z,27.39
2018-07-21T18:36:00.316Z,27.34
2018-07-21T18:37:00.311Z,27.34
2018-07-21T18:38:00.292Z,27.39
2018-07-21T18:39:00.268Z,27.37
2018-07-21T18:40:00.329Z,27.34
2018-07-21T18:41:00.255Z,27.34
2018-07-21T18:42:00.263Z,27.34
2018-07-21T18:43:00.239Z,27.37
2018-07-21T18:44:00.234Z,27.39
2018-07-21T18:45:00.221Z,27.34
2018-07-21T18:46:00.228Z,27.36
2018-07-21T18:47:00.225Z,27.25
2018-07-21T18:48:00.205Z,27.18
2018-07-21T18:49:00.193Z,27.14
2018-07-21T18:50:00.180Z,27.09
2018-07-21T18:51:00.179Z,27.04
2018-07-21T18:52:00.238Z,27.04
2018-07-21T18:53:00.171Z,27.00
2018-07-21T18:54:00.147Z,27.00
2018-07-21T18:55:00.141Z,27.03
2018-07-21T18:56:00.133Z,27.02
2018-07-21T18:57:00.128Z,26.99
2018-07-21T18:58:00.141Z,27.04
2018-07-21T18:59:00.121Z,26.97
2018-07-21T19:00:00.113Z,26.95
2018-07-21T19:01:00.093Z,26.95
2018-07-21T19:02:00.090Z,26.85
2018-07-21T19:03:00.092Z,26.80
2018-07-21T19:04:00.079Z,26.77
2018-07-21T19:05:00.067Z,26.75
2018-07-21T19:06:00.065Z,26.69
2018-07-21T19:07:00.047Z,26.58
2018-07-21T19:08:21.079Z,26.54
2018-07-21T19:09:00.044Z,26.44
2018-07-21T19:10:00.033Z,26.37
2018-07-21T19:11:00.016Z,26.30
2018-07-21T19:12:00.013Z,26.26
2018-07-21T19:13:00.019Z,26.18
2018-07-21T19:14:00.003Z,26.23
2018-07-21T19:15:00.011Z,26.05
2018-07-21T19:15:59.990Z,26.07
2018-07-21T19:16:59.971Z,26.10
2018-07-21T19:17:59.955Z,26.05
2018-07-21T19:18:59.971Z,25.99
2018-07-21T19:20:00.019Z,26.07
2018-07-21T19:20:59.935Z,25.99
2018-07-21T19:21:59.960Z,26.01
2018-07-21T19:22:59.978Z,25.97
2018-07-21T19:23:59.924Z,25.99
2018-07-21T19:24:59.942Z,25.90
2018-07-21T19:25:59.891Z,25.92
2018-07-21T19:26:59.874Z,25.94
2018-07-21T19:27:59.908Z,25.95
2018-07-21T19:28:59.878Z,25.90
2018-07-21T19:29:59.866Z,25.87
2018-07-21T19:30:59.856Z,25.90
2018-07-21T19:31:59.946Z,25.80
2018-07-21T19:32:59.840Z,25.80
2018-07-21T19:33:59.838Z,25.72
2018-07-21T19:34:59.820Z,25.60
2018-07-21T19:35:59.880Z,25.60
2018-07-21T19:36:59.883Z,25.55
2018-07-21T19:37:59.863Z,25.50
2018-07-21T19:38:59.870Z,25.32
2018-07-21T19:39:59.800Z,25.23
2018-07-21T19:40:59.825Z,25.15
2018-07-21T19:41:59.826Z,25.23
2018-07-21T19:42:59.741Z,25.18
2018-07-21T19:43:59.739Z,25.15
2018-07-21T19:44:59.746Z,25.21
2018-07-21T19:45:59.712Z,25.08
2018-07-21T19:46:59.713Z,25.06
2018-07-21T19:47:59.696Z,24.98
2018-07-21T19:48:59.695Z,24.98
2018-07-21T19:49:59.697Z,24.88
2018-07-21T19:50:59.723Z,24.93
2018-07-21T19:51:59.662Z,24.93
2018-07-21T19:52:59.656Z,24.91
2018-07-21T19:53:59.640Z,24.95
2018-07-21T19:54:59.654Z,24.90
2018-07-21T19:55:59.631Z,24.93
2018-07-21T19:56:59.694Z,24.91
2018-07-21T19:57:59.609Z,24.93
2018-07-21T19:58:59.603Z,24.81
2018-07-21T19:59:59.586Z,24.78
2018-07-21T20:00:59.624Z,24.65
2018-07-21T20:01:59.581Z,24.58
2018-07-21T20:02:59.568Z,24.46
2018-07-21T20:03:59.604Z,24.40
2018-07-21T20:04:59.547Z,24.37
2018-07-21T20:05:59.538Z,24.34
2018-07-21T20:06:59.541Z,24.31
2018-07-21T20:07:59.516Z,24.09
2018-07-21T20:08:59.509Z,23.95
2018-07-21T20:09:59.503Z,23.88
2018-07-21T20:10:59.487Z,23.79
2018-07-21T20:11:59.502Z,23.78
2018-07-21T20:12:59.477Z,23.66
2018-07-21T20:13:59.471Z,23.68
2018-07-21T20:14:59.455Z,23.65
2018-07-21T20:15:59.445Z,23.66
2018-07-21T20:16:59.436Z,23.57
2018-07-21T20:17:59.439Z,23.61
2018-07-21T20:18:59.421Z,23.72
2018-07-21T20:19:59.404Z,23.79
2018-07-21T20:20:59.476Z,23.91
2018-07-21T20:21:59.399Z,23.76
2018-07-21T20:22:59.380Z,23.83
2018-07-21T20:23:59.365Z,23.75
2018-07-21T20:24:59.359Z,23.68
2018-07-21T20:25:59.345Z,23.58
2018-07-21T20:26:59.336Z,23.54
2018-07-21T20:27:59.346Z,23.42
2018-07-21T20:28:59.319Z,23.28
2018-07-21T20:29:59.312Z,23.12
2018-07-21T20:30:59.303Z,23.05
2018-07-21T20:31:59.290Z,23.16
2018-07-21T20:32:59.295Z,23.13
2018-07-21T20:33:59.285Z,23.28
2018-07-21T20:34:59.263Z,23.39
2018-07-21T20:35:59.256Z,23.58
2018-07-21T20:36:59.239Z,23.80
2018-07-21T20:37:59.274Z,23.87
2018-07-21T20:38:59.224Z,23.91
2018-07-21T20:39:59.215Z,23.85
2018-07-21T20:40:59.204Z,23.76
2018-07-21T20:41:59.190Z,23.63
2018-07-21T20:42:59.186Z,23.57
2018-07-21T20:43:59.185Z,23.57
2018-07-21T20:44:59.164Z,23.51
2018-07-21T20:45:59.148Z,23.48
2018-07-21T20:46:59.142Z,23.46
2018-07-21T20:47:59.136Z,23.43
2018-07-21T20:48:59.141Z,23.39
2018-07-21T20:49:59.115Z,23.40
2018-07-21T20:50:59.103Z,23.43
2018-07-21T20:51:59.093Z,23.46
2018-07-21T20:52:59.081Z,23.46
2018-07-21T20:53:59.071Z,23.32
2018-07-21T20:54:59.084Z,23.35
2018-07-21T20:55:59.057Z,23.35
2018-07-21T20:57:00.912Z,23.27
2018-07-21T20:57:59.032Z,23.36
2018-07-21T20:58:59.019Z,23.27
2018-07-21T20:59:59.047Z,23.36
2018-07-21T21:00:59.002Z,23.42
2018-07-21T21:01:58.989Z,23.53
2018-07-21T21:02:58.985Z,23.63
2018-07-21T21:03:58.973Z,23.65
2018-07-21T21:04:58.958Z,23.70
2018-07-21T21:05:58.963Z,23.65
2018-07-21T21:06:58.961Z,23.70
2018-07-21T21:07:58.935Z,23.65
2018-07-21T21:08:58.924Z,23.61
2018-07-21T21:09:58.909Z,23.53
2018-07-21T21:10:58.918Z,23.54
2018-07-21T21:11:58.895Z,23.51
2018-07-21T21:12:58.896Z,23.54
2018-07-21T21:13:58.870Z,23.54
2018-07-21T21:14:58.860Z,23.48
2018-07-21T21:15:58.865Z,23.38
2018-07-21T21:16:58.861Z,23.53
2018-07-21T21:17:58.831Z,23.50
2018-07-21T21:18:58.820Z,23.57
2018-07-21T21:19:58.806Z,23.54
2018-07-21T21:20:58.804Z,23.48
2018-07-21T21:21:58.807Z,23.51
2018-07-21T21:22:58.793Z,23.43
2018-07-21T21:23:58.777Z,23.51
2018-07-21T21:24:58.787Z,23.46
2018-07-21T21:25:58.750Z,23.39
2018-07-21T21:26:58.748Z,23.43
2018-07-21T21:28:01.414Z,23.38
2018-07-21T21:28:58.740Z,23.36
2018-07-21T21:29:58.741Z,23.35
2018-07-21T21:30:58.769Z,23.35
2018-07-21T21:31:58.690Z,23.38
2018-07-21T21:32:58.762Z,23.25
2018-07-21T21:33:58.684Z,23.36
2018-07-21T21:34:58.676Z,23.22
2018-07-21T21:35:58.650Z,23.25
2018-07-21T21:36:58.653Z,23.17
2018-07-21T21:37:58.632Z,23.19
2018-07-21T21:38:58.616Z,23.28
2018-07-21T21:40:05.126Z,23.20
2018-07-21T21:40:58.598Z,23.15
2018-07-21T21:42:02.998Z,23.10
2018-07-21T21:42:58.582Z,23.10
2018-07-21T21:43:58.586Z,23.09
2018-07-21T21:44:59.722Z,23.01
2018-07-21T21:46:00.047Z,22.95
2018-07-21T21:46:58.616Z,23.01
2018-07-21T21:47:58.567Z,22.90
2018-07-21T21:49:00.499Z,22.91
2018-07-21T21:50:58.556Z,22.82
2018-07-21T21:51:58.488Z,22.91
2018-07-21T21:52:58.490Z,22.98
2018-07-21T21:53:58.472Z,23.07
2018-07-21T21:54:58.472Z,22.95
2018-07-21T21:55:58.444Z,22.94
2018-07-21T21:56:58.447Z,22.95
2018-07-21T21:57:58.439Z,22.94
2018-07-21T21:58:58.413Z,22.98
2018-07-21T21:59:58.459Z,22.95
2018-07-21T22:00:58.414Z,23.00
2018-07-21T22:01:58.393Z,22.88
2018-07-21T22:02:58.375Z,22.90
2018-07-21T22:03:58.372Z,22.88
2018-07-21T22:04:58.357Z,22.83
2018-07-21T22:05:58.366Z,22.82
2018-07-21T22:06:58.335Z,22.79
2018-07-21T22:07:58.325Z,22.68
2018-07-21T22:08:58.314Z,22.68
2018-07-21T22:09:58.319Z,22.70
2018-07-21T22:10:58.299Z,22.70
2018-07-21T22:11:58.312Z,22.64
2018-07-21T22:12:58.274Z,22.64
2018-07-21T22:13:58.270Z,22.65
2018-07-21T22:14:58.277Z,22.65
2018-07-21T22:15:58.258Z,22.57
2018-07-21T22:16:58.232Z,22.54
2018-07-21T22:17:58.229Z,22.52
2018-07-21T22:18:58.271Z,22.49
2018-07-21T22:19:58.219Z,22.47
2018-07-21T22:20:58.221Z,22.42
2018-07-21T22:21:58.210Z,22.39
2018-07-21T22:22:58.186Z,22.33
2018-07-21T22:23:58.190Z,22.36
2018-07-21T22:24:58.178Z,22.42
2018-07-21T22:25:58.164Z,22.30
2018-07-21T22:26:58.164Z,22.43
2018-07-21T22:27:58.162Z,22.31
2018-07-21T22:28:58.150Z,22.28
2018-07-21T22:29:58.132Z,22.30
2018-07-21T22:30:58.098Z,22.30
2018-07-21T22:31:58.085Z,22.25
2018-07-21T22:32:58.085Z,22.22
2018-07-21T22:33:58.144Z,22.24
2018-07-21T22:34:58.074Z,22.31
2018-07-21T22:35:58.047Z,22.30
2018-07-21T22:36:58.053Z,22.27
2018-07-21T22:37:58.015Z,22.27
2018-07-21T22:38:58.031Z,22.24
2018-07-21T22:39:58.008Z,22.21
2018-07-21T22:40:58.016Z,22.22
2018-07-21T22:41:57.983Z,22.14
2018-07-21T22:42:57.958Z,22.12
2018-07-21T22:44:18.978Z,22.15
2018-07-21T22:47:04.938Z,22.07
2018-07-21T22:48:31.708Z,22.03
2018-07-21T22:49:03.320Z,21.99
2018-07-21T22:49:57.914Z,22.02
2018-07-21T22:50:57.892Z,21.99
2018-07-21T22:51:57.877Z,21.96
2018-07-21T22:52:57.873Z,21.96
2018-07-21T22:53:57.875Z,21.98
2018-07-21T22:54:57.841Z,21.96
2018-07-21T22:55:57.881Z,21.90
2018-07-21T22:56:57.866Z,21.96
2018-07-21T22:57:57.828Z,21.90
2018-07-21T22:58:57.831Z,21.83
2018-07-21T22:59:57.827Z,21.82
2018-07-21T23:00:57.777Z,21.77
2018-07-21T23:01:57.766Z,21.80
2018-07-21T23:02:57.758Z,21.74
2018-07-21T23:03:57.752Z,21.74
2018-07-21T23:04:57.767Z,21.71
2018-07-21T23:05:57.725Z,21.68
2018-07-21T23:06:57.725Z,21.64
2018-07-21T23:07:57.719Z,21.62
2018-07-21T23:08:57.696Z,21.53
2018-07-21T23:09:57.704Z,21.61
2018-07-21T23:10:57.702Z,21.52
2018-07-21T23:11:57.657Z,21.47
2018-07-21T23:12:57.683Z,21.53
2018-07-21T23:13:57.626Z,21.46
2018-07-21T23:14:57.632Z,21.42
2018-07-21T23:15:57.623Z,21.42
2018-07-21T23:16:57.592Z,21.38
2018-07-21T23:17:57.602Z,21.34
2018-07-21T23:18:57.581Z,21.37
2018-07-21T23:19:57.559Z,21.35
2018-07-21T23:20:57.551Z,21.42
2018-07-21T23:21:57.549Z,21.38
2018-07-21T23:22:57.544Z,21.31
2018-07-21T23:23:57.516Z,21.35
2018-07-21T23:24:57.505Z,21.43
2018-07-21T23:25:57.495Z,21.49
2018-07-21T23:26:57.492Z,21.52
2018-07-21T23:27:57.480Z,21.38
2018-07-21T23:28:57.481Z,21.40
2018-07-21T23:29:57.450Z,21.42
2018-07-21T23:30:57.445Z,21.43
2018-07-21T23:31:57.434Z,21.37
2018-07-21T23:32:57.450Z,21.34
2018-07-21T23:33:57.407Z,21.35
2018-07-21T23:34:57.413Z,21.38
2018-07-21T23:35:57.383Z,21.28
2018-07-21T23:36:57.374Z,21.27
2018-07-21T23:37:57.365Z,21.22
2018-07-21T23:38:57.365Z,21.27
2018-07-21T23:39:57.351Z,21.24
2018-07-21T23:40:57.355Z,21.21
2018-07-21T23:41:57.315Z,21.10
2018-07-21T23:42:57.328Z,21.21
2018-07-21T23:43:57.292Z,21.21
2018-07-21T23:44:57.288Z,21.17
2018-07-21T23:45:57.274Z,21.19
2018-07-21T23:46:57.281Z,21.13
2018-07-21T23:47:57.250Z,21.17
2018-07-21T23:48:57.253Z,21.09
2018-07-21T23:49:57.227Z,20.97
2018-07-21T23:50:57.213Z,21.03
2018-07-21T23:51:57.246Z,21.03
2018-07-21T23:52:57.199Z,20.91
2018-07-21T23:53:57.202Z,20.85
2018-07-21T23:54:57.183Z,20.97
2018-07-21T23:55:57.166Z,20.91
2018-07-21T23:56:57.177Z,20.97
2018-07-21T23:57:57.142Z,20.92
2018-07-21T23:58:57.141Z,20.94
2018-07-21T23:59:57.144Z,20.84
